Country
Station

 

Weather  for  Chiang Mai  -  Thailand    Thailand

  
27 °C (81 °F)
    
 
 

Current METAR for Chiang Mai is :

VTCC 171030Z 20006KT 9999 -RA FEW025CB BKN035 27/24 Q1001 TEMPO FM1100 06015G25KT 5000 TSRA

 

This is a report for Chiang Mai - Thailand.
 
The report was made 36 minutes ago, at 10:30 UTC .
The wind was blowing at a speed of 3.1 meters per second (6.9 miles per hour) from south/southwest (200°).
 
The temperature was 27 °C (81 °F), with a dew-point at 24 °C (75 °F).
The temperature felt like 31 °C (87 °F).
 
The atmospheric pressure was 1001 hPa (29.56 inHg).
The relative humidity was 83.7%.
 
There were a few cumulonimbus clouds at a height of 762 meters (2500 feet) and broken clouds at a height of 1067 meters (3500 feet).
 
The overall visibility was greater than 10 kilometers (6.2 miles).
 
Currently light rain.

 
 
 
 

Country :   A   B   C   D   E   F   G   H   I   J   K   L   M   N   O   P   Q   R   S   T   U   V   W   Y   Z

 

Site Info  |  Disclaimer  |  Credits  |  Privacy
Contact us  |  Add to favorites
© 2013-2018 METARs - All rights reserved